createdAt,value
2019-04-23T00:00:21.930Z,7.47
2019-04-23T00:02:53.628Z,5.53
2019-04-23T00:05:35.382Z,5.90
2019-04-23T00:08:09.693Z,5.57
2019-04-23T00:10:28.664Z,11.10
2019-04-23T00:12:54.203Z,4.50
2019-04-23T00:15:25.108Z,5.10
2019-04-23T00:17:58.431Z,5.00
2019-04-23T00:20:25.904Z,6.00
2019-04-23T00:25:54.384Z,5.03
2019-04-23T00:28:21.615Z,5.60
2019-04-23T00:30:58.237Z,3.90
2019-04-23T00:35:53.385Z,5.93
2019-04-23T00:40:54.333Z,5.30
2019-04-23T00:43:22.262Z,6.70
2019-04-23T00:45:56.448Z,4.87
2019-04-23T00:48:30.225Z,5.40
2019-04-23T00:53:23.393Z,5.97
2019-04-23T01:00:52.748Z,4.30
2019-04-23T01:06:08.091Z,5.50
2019-04-23T01:10:59.788Z,7.33
2019-04-23T01:13:39.357Z,6.80
2019-04-23T01:16:01.034Z,5.85
2019-04-23T01:18:48.541Z,5.40
2019-04-23T01:20:54.017Z,5.30
2019-04-23T01:23:31.211Z,6.30
2019-04-23T01:26:01.969Z,5.03
2019-04-23T01:28:54.219Z,5.33
2019-04-23T01:31:20.078Z,5.77
2019-04-23T01:34:04.126Z,9.07
2019-04-23T01:41:21.663Z,6.85
2019-04-23T01:43:47.828Z,4.60
2019-04-23T01:46:21.627Z,5.07
2019-04-23T01:48:51.896Z,5.37
2019-04-23T01:51:18.992Z,5.20
2019-04-23T01:54:06.556Z,5.70
2019-04-23T01:56:24.299Z,5.55
2019-04-23T01:58:53.528Z,7.20
2019-04-23T02:01:18.677Z,5.80
2019-04-23T02:03:54.410Z,6.42
2019-04-23T02:06:20.341Z,7.58
2019-04-23T02:08:50.490Z,7.72
2019-04-23T02:11:18.988Z,5.83
2019-04-23T02:16:24.708Z,6.08
2019-04-23T02:19:11.467Z,6.37
2019-04-23T02:21:25.805Z,7.17
2019-04-23T02:23:54.813Z,7.80
2019-04-23T02:26:27.716Z,6.28
2019-04-23T02:29:03.306Z,6.78
2019-04-23T02:31:53.090Z,8.10
2019-04-23T02:34:18.930Z,7.10
2019-04-23T02:36:40.526Z,7.00
2019-04-23T02:41:45.684Z,6.70
2019-04-23T02:44:19.812Z,7.35
2019-04-23T02:46:43.541Z,7.05
2019-04-23T02:49:20.556Z,8.87
2019-04-23T02:51:42.455Z,7.65
2019-04-23T02:54:26.725Z,7.60
2019-04-23T02:56:47.009Z,8.13
2019-04-23T03:04:17.528Z,8.00
2019-04-23T03:09:14.902Z,9.40
2019-04-23T03:11:56.805Z,8.28
2019-04-23T03:16:53.986Z,7.70
2019-04-23T03:19:21.843Z,9.20
2019-04-23T03:22:01.481Z,8.87
2019-04-23T03:29:40.496Z,9.15
2019-04-23T03:39:55.025Z,10.75
2019-04-23T03:44:57.659Z,10.60
2019-04-23T03:47:11.481Z,10.28
2019-04-23T03:49:41.249Z,10.05
2019-04-23T03:52:29.393Z,9.70
2019-04-23T03:57:19.570Z,11.60
2019-04-23T03:59:51.980Z,15.28
2019-04-23T04:02:31.396Z,10.05
2019-04-23T04:07:18.592Z,10.65
2019-04-23T04:12:31.705Z,12.40
2019-04-23T04:14:46.555Z,11.65
2019-04-23T04:25:01.473Z,12.28
2019-04-23T04:27:36.505Z,11.05
2019-04-23T04:29:56.489Z,12.60
2019-04-23T04:32:09.704Z,12.93
2019-04-23T04:37:35.160Z,13.75
2019-04-23T04:39:57.137Z,14.25
2019-04-23T04:44:50.125Z,16.70
2019-04-23T04:47:25.816Z,14.73
2019-04-23T04:49:58.546Z,12.98
2019-04-23T04:54:39.346Z,14.75
2019-04-23T04:57:30.255Z,13.93
2019-04-23T05:02:28.418Z,18.52
2019-04-23T05:07:27.907Z,14.73
2019-04-23T05:15:03.096Z,17.33
2019-04-23T05:17:42.339Z,14.53
2019-04-23T05:20:04.958Z,15.30
2019-04-23T05:22:45.100Z,16.60
2019-04-23T05:24:57.238Z,15.20
2019-04-23T05:27:44.748Z,14.23
2019-04-23T05:30:09.898Z,14.00
2019-04-23T05:32:32.881Z,14.43
2019-04-23T05:35:03.547Z,15.97
2019-04-23T05:37:42.228Z,14.57
2019-04-23T05:40:08.685Z,14.70
2019-04-23T05:42:38.008Z,14.23
2019-04-23T05:45:08.362Z,13.47
2019-04-23T05:47:50.882Z,15.97
2019-04-23T05:50:09.895Z,14.10
2019-04-23T05:52:37.925Z,13.73
2019-04-23T05:55:10.640Z,14.87
2019-04-23T05:57:34.601Z,14.20
2019-04-23T06:00:05.473Z,12.87
2019-04-23T06:02:42.837Z,13.83
2019-04-23T06:05:06.003Z,12.90
2019-04-23T06:07:35.781Z,14.13
2019-04-23T06:10:04.767Z,13.47
2019-04-23T06:12:31.917Z,13.27
2019-04-23T06:15:09.721Z,12.00
2019-04-23T06:17:32.466Z,11.70
2019-04-23T06:22:45.472Z,15.47
2019-04-23T06:25:15.001Z,12.77
2019-04-23T06:27:33.824Z,12.53
2019-04-23T06:30:04.547Z,12.43
2019-04-23T06:32:57.150Z,13.20
2019-04-23T06:35:04.900Z,12.97
2019-04-23T06:37:49.575Z,11.83
2019-04-23T06:40:08.384Z,11.83
2019-04-23T06:42:36.190Z,11.83
2019-04-23T06:45:22.499Z,12.40
2019-04-23T06:47:40.971Z,12.57
2019-04-23T06:50:06.655Z,12.50
2019-04-23T06:52:32.131Z,11.40
2019-04-23T06:55:09.043Z,11.97
2019-04-23T06:57:38.196Z,14.33
2019-04-23T07:00:19.790Z,11.37
2019-04-23T07:02:37.697Z,12.00
2019-04-23T07:05:15.774Z,11.57
2019-04-23T07:10:11.429Z,11.20
2019-04-23T07:12:41.134Z,11.30
2019-04-23T07:15:26.344Z,12.67
2019-04-23T07:17:38.130Z,11.10
2019-04-23T07:20:12.848Z,11.97
2019-04-23T07:22:41.404Z,11.23
2019-04-23T07:25:14.155Z,9.80
2019-04-23T07:27:34.685Z,11.50
2019-04-23T07:30:13.123Z,10.73
2019-04-23T07:32:46.452Z,11.03
2019-04-23T07:35:24.639Z,9.83
2019-04-23T07:37:50.186Z,11.10
2019-04-23T07:40:27.516Z,12.63
2019-04-23T07:42:56.608Z,10.80
2019-04-23T07:45:45.414Z,10.80
2019-04-23T07:53:16.994Z,11.67
2019-04-23T07:55:48.480Z,11.53
2019-04-23T07:58:21.301Z,10.63
2019-04-23T08:00:57.050Z,11.10
2019-04-23T08:03:30.789Z,10.93
2019-04-23T08:05:44.059Z,12.90
2019-04-23T08:08:14.726Z,10.33
2019-04-23T08:13:48.903Z,9.97
2019-04-23T08:16:25.838Z,10.80
2019-04-23T08:18:49.461Z,11.40
2019-04-23T08:21:16.317Z,10.43
2019-04-23T08:23:55.259Z,11.13
2019-04-23T08:26:42.508Z,11.40
2019-04-23T08:29:13.832Z,11.37
2019-04-23T08:31:43.816Z,10.80
2019-04-23T08:39:35.406Z,10.57
2019-04-23T08:41:56.461Z,11.13
2019-04-23T08:44:57.032Z,12.70
2019-04-23T08:47:15.610Z,10.50
2019-04-23T08:49:43.543Z,11.73
2019-04-23T08:52:11.863Z,12.57
2019-04-23T08:54:48.440Z,11.10
2019-04-23T08:59:43.893Z,11.23
2019-04-23T09:02:24.010Z,11.97
2019-04-23T09:04:51.833Z,10.73
2019-04-23T09:07:18.921Z,13.10
2019-04-23T09:09:43.893Z,11.33
2019-04-23T09:12:18.858Z,11.33
2019-04-23T09:14:48.893Z,10.67
2019-04-23T09:17:17.320Z,10.30
2019-04-23T09:19:53.099Z,11.00
2019-04-23T09:22:33.399Z,10.77
2019-04-23T09:30:00.853Z,10.80
2019-04-23T09:40:04.832Z,13.03
2019-04-23T09:42:54.530Z,11.70
2019-04-23T09:45:43.824Z,11.17
2019-04-23T09:50:46.867Z,11.00
2019-04-23T09:53:24.120Z,15.63
2019-04-23T09:55:38.817Z,14.10
2019-04-23T09:58:11.006Z,10.20
2019-04-23T10:00:43.674Z,16.70
2019-04-23T10:03:03.617Z,11.00
2019-04-23T10:05:28.848Z,10.73
2019-04-23T10:07:58.659Z,10.57
2019-04-23T10:10:18.579Z,10.00
2019-04-23T10:12:48.202Z,10.13
2019-04-23T10:15:24.354Z,11.60
2019-04-23T10:17:47.435Z,9.43
2019-04-23T10:20:18.251Z,11.23
2019-04-23T10:22:48.283Z,11.90
2019-04-23T10:25:17.237Z,13.73
2019-04-23T10:27:52.942Z,9.67
2019-04-23T10:30:17.737Z,9.67
2019-04-23T10:32:47.552Z,8.90
2019-04-23T10:35:25.727Z,8.97
2019-04-23T10:37:55.973Z,11.23
2019-04-23T10:40:26.247Z,10.87
2019-04-23T10:42:51.750Z,10.00
2019-04-23T10:45:34.906Z,9.73
2019-04-23T10:48:33.335Z,8.67
2019-04-23T10:51:25.955Z,8.50
2019-04-23T10:53:39.662Z,10.10
2019-04-23T10:58:35.360Z,11.60
2019-04-23T11:01:17.676Z,11.70
2019-04-23T11:03:48.975Z,9.73
2019-04-23T11:08:36.928Z,9.47
2019-04-23T11:11:14.668Z,11.40
2019-04-23T11:21:23.982Z,10.37
2019-04-23T11:24:11.657Z,10.60
2019-04-23T11:26:21.828Z,9.30
2019-04-23T11:28:45.094Z,15.93
2019-04-23T11:31:32.037Z,9.30
2019-04-23T11:43:55.355Z,9.10
2019-04-23T11:54:06.504Z,10.07
2019-04-23T11:58:52.920Z,8.70
2019-04-23T12:01:52.756Z,10.50
2019-04-23T12:07:10.995Z,9.00
2019-04-23T12:09:53.835Z,11.23
2019-04-23T12:22:27.004Z,8.17
2019-04-23T12:25:02.275Z,11.73
2019-04-23T12:27:25.964Z,8.40
2019-04-23T12:29:47.826Z,8.40
2019-04-23T12:35:01.437Z,10.10
2019-04-23T12:37:42.299Z,8.17
2019-04-23T12:45:25.009Z,7.90
2019-04-23T12:50:42.454Z,9.48
2019-04-23T12:52:49.061Z,5.70
2019-04-23T12:55:21.602Z,6.08
2019-04-23T12:58:01.640Z,7.70
2019-04-23T13:00:29.596Z,6.50
2019-04-23T13:08:21.920Z,6.07
2019-04-23T13:10:44.035Z,8.35
2019-04-23T13:15:30.757Z,6.72
2019-04-23T13:23:11.804Z,10.55
2019-04-23T13:25:40.229Z,7.03
2019-04-23T13:30:49.948Z,6.00
2019-04-23T13:33:20.961Z,7.67
2019-04-23T13:35:53.296Z,6.00
2019-04-23T13:40:57.196Z,5.65
2019-04-23T13:43:30.318Z,5.55
2019-04-23T13:48:15.087Z,7.12
2019-04-23T13:53:35.348Z,7.60
2019-04-23T13:55:56.699Z,5.15
2019-04-23T13:58:23.536Z,5.08
2019-04-23T14:01:18.184Z,7.58
2019-04-23T14:03:37.895Z,6.42
2019-04-23T14:08:51.333Z,5.00
2019-04-23T14:13:55.193Z,5.87
2019-04-23T14:16:23.081Z,5.35
2019-04-23T14:21:20.375Z,5.03
2019-04-23T14:24:08.375Z,7.03
2019-04-23T14:26:25.414Z,5.65
2019-04-23T14:31:30.201Z,5.07
2019-04-23T14:38:54.473Z,6.62
2019-04-23T14:44:03.682Z,8.03
2019-04-23T14:48:57.935Z,4.70
2019-04-23T14:51:32.262Z,4.85
2019-04-23T14:53:53.806Z,8.40
2019-04-23T15:01:34.718Z,4.62
2019-04-23T15:04:10.940Z,4.78
2019-04-23T15:06:37.966Z,9.83
2019-04-23T15:09:18.914Z,5.12
2019-04-23T15:11:35.324Z,12.10
2019-04-23T15:14:01.454Z,5.70
2019-04-23T15:16:39.874Z,6.27
2019-04-23T15:19:22.044Z,6.17
2019-04-23T15:24:14.183Z,7.35
2019-04-23T15:28:49.112Z,4.62
2019-04-23T15:31:40.584Z,6.25
2019-04-23T15:36:50.896Z,6.42
2019-04-23T15:39:19.598Z,5.12
2019-04-23T15:41:52.312Z,6.70
2019-04-23T15:46:39.239Z,6.25
2019-04-23T15:49:18.233Z,5.25
2019-04-23T15:51:45.090Z,6.78
2019-04-23T16:01:37.109Z,5.60
2019-04-23T16:03:47.227Z,5.63
2019-04-23T16:06:20.979Z,5.33
2019-04-23T16:09:08.103Z,10.53
2019-04-23T16:14:26.174Z,6.60
2019-04-23T16:19:31.548Z,8.30
2019-04-23T16:24:56.042Z,7.43
2019-04-23T16:27:07.965Z,7.43
2019-04-23T16:29:57.765Z,9.07
2019-04-23T16:32:14.640Z,7.40
2019-04-23T16:34:34.259Z,7.20
2019-04-23T16:37:15.636Z,8.80
2019-04-23T16:39:39.295Z,7.90
2019-04-23T16:44:48.622Z,7.77
2019-04-23T16:47:20.573Z,8.50
2019-04-23T16:49:42.135Z,11.87
2019-04-23T16:52:17.800Z,8.73
2019-04-23T16:54:53.253Z,7.87
2019-04-23T16:59:51.476Z,11.43
2019-04-23T17:02:14.928Z,7.80
2019-04-23T17:07:06.657Z,10.33
2019-04-23T17:12:17.539Z,7.77
2019-04-23T17:14:44.197Z,7.40
2019-04-23T17:17:06.360Z,8.13
2019-04-23T17:19:48.353Z,9.73
2019-04-23T17:22:11.329Z,11.20
2019-04-23T17:24:46.323Z,8.60
2019-04-23T17:27:22.579Z,8.93
2019-04-23T17:32:09.904Z,11.40
2019-04-23T17:35:09.559Z,10.50
2019-04-23T17:37:29.935Z,8.90
2019-04-23T17:40:04.621Z,12.03
2019-04-23T17:42:39.410Z,10.37
2019-04-23T17:45:22.833Z,9.43
2019-04-23T17:47:42.227Z,9.57
2019-04-23T17:50:25.427Z,14.83
2019-04-23T17:57:42.100Z,12.00
2019-04-23T18:00:32.924Z,12.87
2019-04-23T18:02:55.436Z,10.27
2019-04-23T18:07:50.462Z,10.97
2019-04-23T18:12:51.628Z,17.87
2019-04-23T18:15:15.701Z,17.90
2019-04-23T18:17:54.694Z,13.70
2019-04-23T18:20:29.613Z,11.67
2019-04-23T18:23:06.225Z,14.13
2019-04-23T18:25:43.634Z,14.80
2019-04-23T18:28:08.463Z,11.47
2019-04-23T18:31:19.826Z,11.73
2019-04-23T18:35:58.043Z,17.90
2019-04-23T18:38:42.862Z,11.53
2019-04-23T18:46:10.135Z,14.10
2019-04-23T18:48:43.895Z,12.40
2019-04-23T18:51:03.551Z,24.30
2019-04-23T18:53:45.574Z,15.07
2019-04-23T18:56:11.370Z,14.13
2019-04-23T19:06:32.525Z,16.70
2019-04-23T19:09:10.029Z,15.70
2019-04-23T19:11:53.198Z,14.00
2019-04-23T19:14:07.984Z,12.20
2019-04-23T19:19:10.875Z,12.70
2019-04-23T19:22:09.262Z,13.57
2019-04-23T19:29:12.466Z,14.23
2019-04-23T19:31:54.113Z,13.20
2019-04-23T19:34:29.841Z,12.70
2019-04-23T19:37:02.755Z,13.50
2019-04-23T19:39:26.273Z,12.30
2019-04-23T19:44:24.994Z,12.47
2019-04-23T19:47:06.891Z,12.63
2019-04-23T19:49:38.544Z,14.03
2019-04-23T19:51:53.322Z,12.60
2019-04-23T19:54:44.518Z,12.83
2019-04-23T19:59:31.602Z,10.70
2019-04-23T20:04:26.300Z,12.53
2019-04-23T20:11:54.694Z,13.60
2019-04-23T20:14:24.778Z,13.80
2019-04-23T20:19:30.080Z,14.03
2019-04-23T20:22:00.260Z,14.70
2019-04-23T20:27:06.037Z,13.17
2019-04-23T20:29:50.925Z,14.80
2019-04-23T20:34:58.851Z,14.60
2019-04-23T20:37:06.667Z,15.27
2019-04-23T20:39:47.980Z,14.23
2019-04-23T20:47:09.854Z,14.20
2019-04-23T20:49:45.518Z,14.83
2019-04-23T20:52:10.678Z,14.27
2019-04-23T21:03:30.857Z,15.90
2019-04-23T21:05:33.423Z,16.07
2019-04-23T21:08:50.914Z,16.07
2019-04-23T21:13:27.513Z,16.37
2019-04-23T21:18:15.414Z,15.77
2019-04-23T21:23:14.583Z,16.30
2019-04-23T21:25:43.982Z,14.97
2019-04-23T21:28:18.198Z,14.70
2019-04-23T21:41:33.300Z,16.53
2019-04-23T21:46:24.373Z,16.23
2019-04-23T21:51:31.588Z,15.67
2019-04-23T21:53:51.747Z,15.77
2019-04-23T21:56:16.758Z,19.00
2019-04-23T21:58:57.826Z,15.80
2019-04-23T22:06:32.528Z,16.97
2019-04-23T22:09:02.825Z,15.83
2019-04-23T22:16:35.629Z,15.97
2019-04-23T22:19:09.141Z,15.33
2019-04-23T22:26:28.430Z,16.33
2019-04-23T22:29:05.471Z,14.93
2019-04-23T22:31:29.074Z,17.67
2019-04-23T22:34:03.763Z,16.73
2019-04-23T22:36:22.970Z,16.47
2019-04-23T22:39:00.324Z,14.70
2019-04-23T22:41:28.625Z,16.90
2019-04-23T22:49:17.957Z,16.73
2019-04-23T22:51:41.522Z,16.73
2019-04-23T22:54:05.615Z,16.33
2019-04-23T22:56:42.427Z,16.63
2019-04-23T22:59:10.304Z,21.67
2019-04-23T23:01:56.220Z,17.33
2019-04-23T23:04:05.044Z,16.53
2019-04-23T23:11:34.895Z,16.43
2019-04-23T23:16:40.911Z,17.37
2019-04-23T23:19:16.896Z,18.80
2019-04-23T23:21:47.902Z,17.10
2019-04-23T23:24:09.635Z,20.00
2019-04-23T23:26:44.426Z,18.00
2019-04-23T23:29:02.306Z,18.50
2019-04-23T23:31:37.189Z,18.57
2019-04-23T23:36:38.329Z,17.83
2019-04-23T23:39:25.017Z,17.77
2019-04-23T23:41:43.901Z,16.97
2019-04-23T23:49:11.113Z,18.93
2019-04-23T23:56:39.280Z,16.93
2019-04-23T23:59:12.807Z,17.60
